Wheeler, Michigan
Current Conditions -  °F | °C
As of 1:33 PM on Friday 28 Nov 2014 (Local Time) from KAMN Reporting Station
Light Snow Light Snow  
Wind Chill: 15°   Ceiling: 1900
Heat Index: 25°   Visibility: 2.5mi
Dew Point: 20°   Wind: 12mph
Humidity: 79%   Direction: 190°S
Pressure: 30.19"   Gusts: NA
Location:  43.41°N, 84.44°W
Report Text: KAMN 281833Z AUTO 19010KT 2 1/2SM -SN OVC019 M04/M07 A3019 RMK AO2 T10371069
Loading
Personal Weather Stations






























Interactive Weather Map New forecast layout! Learn more

10-Day Weather Forecast

Advertisements
Track Severe Weather on mobile